Time;durP1;ratioP1;P1;durP2;ratioP2;P2;SDS_P1;SDS_P2;PMS_P1;PMS_P2;Temp;Humidity;BMP_temperature;BMP_pressure;BME280_temperature;BME280_humidity;BME280_pressure;Samples;Min_cycle;Max_cycle;Signal;HPM_P1;HPM_P2
2022/11/04 00:01:31;;;;;;;14.27;7.78;;;;;;;13.48;43.24;93991.94;5036729;28;20045;-75
2022/11/04 00:03:57;;;;;;;12.60;6.55;;;;;;;13.41;43.32;93987.13;5037549;28;20493;-75
2022/11/04 00:06:23;;;;;;;13.43;7.22;;;;;;;13.36;43.27;93971.28;5038223;28;20809;-76
2022/11/04 00:08:50;;;;;;;14.40;7.63;;;;;;;13.47;43.22;93999.19;5037683;28;20029;-76
2022/11/04 00:14:00;;;;;;;20.90;7.20;;;;;;;13.46;43.07;93989.59;5038480;28;20044;-76
2022/11/04 00:19:10;;;;;;;12.15;6.95;;;;;;;13.35;43.33;93991.09;5039450;28;20087;-76
2022/11/04 00:30:06;;;;;;;10.68;6.60;;;;;;;13.30;43.63;93986.72;5035562;28;20090;-75
2022/11/04 00:35:17;;;;;;;13.02;6.95;;;;;;;12.96;43.84;93943.47;5036628;28;20044;-75
2022/11/04 00:37:43;;;;;;;13.57;7.05;;;;;;;13.02;43.85;93942.16;5035536;28;20040;-75
2022/11/04 00:40:12;;;;;;;10.15;6.60;;;;;;;13.16;43.78;93962.16;5036743;28;20440;-75
2022/11/04 00:42:38;;;;;;;9.98;6.38;;;;;;;13.24;43.71;93977.34;5034273;28;20384;-75
2022/11/04 00:45:04;;;;;;;11.88;6.05;;;;;;;13.27;43.51;93981.25;5036431;28;20040;-76
2022/11/04 00:47:30;;;;;;;13.32;7.18;;;;;;;12.92;43.55;93919.28;5035289;28;20033;-75
2022/11/04 00:49:55;;;;;;;9.82;6.60;;;;;;;13.19;43.63;93963.41;5035052;28;20087;-75
2022/11/04 00:52:21;;;;;;;13.23;6.80;;;;;;;13.10;43.46;93941.34;5036050;28;20029;-75
2022/11/04 00:54:46;;;;;;;11.27;6.40;;;;;;;13.18;43.54;93961.84;5035825;28;20074;-75
2022/11/04 00:57:13;;;;;;;12.68;6.53;;;;;;;13.09;43.35;93948.56;5036269;28;20384;-76
2022/11/04 00:59:39;;;;;;;14.18;5.78;;;;;;;12.92;43.74;93937.19;5033382;28;20622;-75
2022/11/04 01:02:06;;;;;;;13.55;6.63;;;;;;;13.02;43.80;93948.28;5036967;28;20029;-75
2022/11/04 01:04:31;;;;;;;16.00;6.93;;;;;;;12.98;43.81;93938.56;5020546;28;20094;-75
2022/11/04 01:06:57;;;;;;;12.25;7.13;;;;;;;12.99;43.77;93940.16;5035338;28;20111;-75
2022/11/04 01:09:22;;;;;;;16.63;7.00;;;;;;;12.91;43.46;93930.31;5037600;28;20040;-75
2022/11/04 01:11:48;;;;;;;12.07;7.22;;;;;;;13.12;43.49;93957.78;5033404;28;20090;-75
2022/11/04 01:14:13;;;;;;;20.40;6.75;;;;;;;13.12;43.56;93955.91;5037880;28;20074;-75
2022/11/04 01:16:39;;;;;;;14.68;7.03;;;;;;;12.99;43.93;93932.13;5035267;28;20041;-75
2022/11/04 01:19:05;;;;;;;13.40;6.28;;;;;;;13.04;43.85;93945.28;5036818;28;20033;-75
2022/11/04 01:21:31;;;;;;;17.70;6.95;;;;;;;12.92;43.88;93919.28;5018086;28;20025;-75
2022/11/04 01:23:56;;;;;;;13.27;7.10;;;;;;;13.01;43.89;93935.25;5035396;28;20083;-75
2022/11/04 01:26:24;;;;;;;13.05;7.80;;;;;;;12.94;43.75;93924.31;5036767;28;20024;-76
2022/11/04 01:28:51;;;;;;;15.48;7.10;;;;;;;12.89;43.93;93915.41;5035089;28;20104;-75
2022/11/04 01:31:22;;;;;;;13.20;6.95;;;;;;;13.00;43.68;93936.38;5034316;28;20028;-75
2022/11/04 01:33:49;;;;;;;14.50;6.28;;;;;;;12.82;44.06;93909.00;5035791;28;20587;-76
2022/11/04 01:36:15;;;;;;;13.73;7.50;;;;;;;12.99;43.82;93926.81;5036464;28;20032;-75
2022/11/04 01:38:41;;;;;;;12.05;6.72;;;;;;;12.91;43.89;93919.66;5017515;28;20028;-75
2022/11/04 01:41:10;;;;;;;10.07;6.50;;;;;;;12.83;44.12;93910.56;5017530;28;20031;-75
2022/11/04 01:43:47;;;;;;;17.95;7.05;;;;;;;12.94;43.96;93929.66;5033711;28;20408;-77
2022/11/04 01:46:36;;;;;;;18.58;7.28;;;;;;;12.93;44.12;93930.75;5036425;28;20021;-76
2022/11/04 01:49:28;;;;;;;16.33;7.40;;;;;;;12.89;44.20;93928.75;5035188;28;20036;-77
2022/11/04 01:51:59;;;;;;;10.82;7.05;;;;;;;12.85;44.17;93921.72;5005336;28;20126;-75
2022/11/04 01:54:25;;;;;;;11.27;7.28;;;;;;;12.84;44.04;93917.47;5035064;28;20025;-77
2022/11/04 01:56:53;;;;;;;15.60;7.72;;;;;;;12.67;44.09;93893.56;5034976;28;20558;-78
2022/11/04 01:59:24;;;;;;;14.00;7.05;;;;;;;12.79;44.17;93913.13;5035472;28;20029;-76
2022/11/04 02:01:50;;;;;;;13.35;6.88;;;;;;;12.59;44.06;93875.72;5035251;28;20025;-76
2022/11/04 02:04:25;;;;;;;13.48;7.05;;;;;;;12.79;43.96;93918.44;5036324;28;20106;-76
2022/11/04 02:06:54;;;;;;;11.98;7.13;;;;;;;12.73;44.42;93906.41;5020222;28;20029;-77
2022/11/04 02:09:21;;;;;;;11.43;7.43;;;;;;;12.63;44.69;93914.00;5038469;28;20048;-76
2022/11/04 02:14:33;;;;;;;12.73;7.23;;;;;;;12.65;44.62;93909.91;5039946;28;20644;-76
2022/11/04 02:17:17;;;;;;;19.70;7.43;;;;;;;12.65;44.92;93909.91;5039585;28;20055;-75
2022/11/04 02:20:00;;;;;;;14.27;7.53;;;;;;;12.51;44.56;93881.88;5039746;28;20025;-76
2022/11/04 02:22:34;;;;;;;14.43;7.55;;;;;;;12.64;44.71;93908.34;5038350;28;20025;-76
2022/11/04 02:25:09;;;;;;;15.85;7.10;;;;;;;12.61;44.49;93906.31;5038842;28;20029;-76
2022/11/04 02:28:11;;;;;;;15.60;7.32;;;;;;;12.60;44.55;93902.09;5039075;28;20100;-76
2022/11/04 02:30:52;;;;;;;7.78;5.53;;;;;;;12.48;44.54;93899.28;5038360;28;20060;-77
2022/11/04 02:33:22;;;;;;;13.98;7.25;;;;;;;12.50;44.98;93899.75;5038590;28;20025;-77
2022/11/04 02:36:02;;;;;;;13.05;7.10;;;;;;;12.37;44.79;93890.88;5037885;28;20511;-77
2022/11/04 02:38:46;;;;;;;14.50;6.55;;;;;;;12.26;45.31;93895.03;5036935;28;20016;-77
2022/11/04 02:41:37;;;;;;;16.98;7.72;;;;;;;12.28;45.23;93878.69;5037555;28;20028;-76
2022/11/04 02:44:29;;;;;;;12.68;7.53;;;;;;;12.35;45.40;93897.63;4989253;28;21599;-77
2022/11/04 02:47:11;;;;;;;18.30;7.25;;;;;;;12.28;45.39;93889.34;5033183;28;20048;-78
2022/11/04 02:49:51;;;;;;;10.82;7.50;;;;;;;12.28;45.22;93894.69;5040113;28;20481;-76
2022/11/04 02:52:40;;;;;;;11.93;8.07;;;;;;;12.29;45.36;93890.91;5039020;28;20382;-76
2022/11/04 02:55:13;;;;;;;8.68;6.32;;;;;;;12.16;45.38;93875.94;5039102;28;20036;-76
2022/11/04 02:57:42;;;;;;;17.10;7.45;;;;;;;12.28;45.13;93892.81;5038150;28;20025;-77
2022/11/04 03:00:12;;;;;;;16.08;7.40;;;;;;;12.22;45.32;93883.44;5039174;28;20036;-76
2022/11/04 03:02:50;;;;;;;12.95;7.45;;;;;;;12.15;45.71;93887.69;5036201;28;20044;-75
2022/11/04 03:05:21;;;;;;;19.15;9.25;;;;;;;12.18;45.40;93889.69;5039056;28;20025;-75
2022/11/04 03:07:50;;;;;;;17.42;7.15;;;;;;;12.22;45.34;93898.66;5019370;28;20444;-75
2022/11/04 03:10:22;;;;;;;11.25;6.97;;;;;;;12.16;45.36;93894.59;5039183;28;20111;-77
2022/11/04 03:12:55;;;;;;;12.77;7.57;;;;;;;11.98;45.46;93865.31;5013674;28;20034;-75
2022/11/04 03:15:27;;;;;;;19.55;9.02;;;;;;;11.87;45.27;93847.38;5036510;28;20263;-76
2022/11/04 03:18:16;;;;;;;15.13;8.20;;;;;;;12.18;45.31;93892.38;5020783;28;20056;-76
2022/11/04 03:20:45;;;;;;;14.23;8.18;;;;;;;11.95;45.41;93865.97;5008345;28;20029;-76
2022/11/04 03:23:11;;;;;;;13.02;8.23;;;;;;;12.04;45.63;93880.03;5038449;28;20099;-76
2022/11/04 03:25:42;;;;;;;14.75;8.38;;;;;;;12.11;45.67;93886.78;5037074;28;20506;-75
2022/11/04 03:28:26;;;;;;;14.35;8.95;;;;;;;12.13;45.57;93889.88;5037474;28;20096;-75
2022/11/04 03:30:58;;;;;;;14.88;8.30;;;;;;;11.99;45.94;93880.22;5037444;28;20036;-75
2022/11/04 03:33:41;;;;;;;16.20;8.38;;;;;;;11.73;46.28;93863.56;5036247;28;20377;-76
2022/11/04 03:36:07;;;;;;;17.50;8.32;;;;;;;11.83;46.29;93865.84;5035738;28;20156;-75
2022/11/04 03:38:34;;;;;;;11.80;7.68;;;;;;;11.71;45.98;93862.31;5038127;28;20477;-77
2022/11/04 03:41:04;;;;;;;11.93;6.78;;;;;;;11.87;46.00;93888.13;5036733;28;20035;-75
2022/11/04 03:43:31;;;;;;;13.68;8.57;;;;;;;11.81;46.26;93878.72;5037118;28;20751;-75
2022/11/04 03:45:57;;;;;;;13.60;7.63;;;;;;;11.74;46.00;93857.13;5036417;28;20025;-77
2022/11/04 03:48:22;;;;;;;12.43;7.82;;;;;;;11.92;46.22;93885.28;5038675;28;20621;-76
2022/11/04 03:50:49;;;;;;;18.92;7.65;;;;;;;11.59;46.38;93837.09;5037348;28;20029;-76
2022/11/04 03:53:21;;;;;;;16.95;8.02;;;;;;;11.90;46.16;93887.47;5036708;28;20459;-75
2022/11/04 03:55:55;;;;;;;16.63;8.18;;;;;;;11.90;46.09;93884.03;5037567;28;20020;-77
2022/11/04 03:58:52;;;;;;;13.48;8.30;;;;;;;11.86;46.25;93881.22;5038417;28;20666;-76
2022/11/04 04:01:22;;;;;;;17.65;8.43;;;;;;;11.76;46.19;93870.13;5036656;28;20039;-76
2022/11/04 04:04:05;;;;;;;13.18;8.65;;;;;;;11.64;46.78;93852.13;5037790;28;20029;-76
2022/11/04 04:06:34;;;;;;;19.95;8.75;;;;;;;11.80;46.50;93871.03;5037283;28;20021;-76
2022/11/04 04:09:22;;;;;;;20.00;7.43;;;;;;;11.73;46.85;93871.56;5037582;28;20805;-76
2022/11/04 04:12:13;;;;;;;12.38;8.80;;;;;;;11.52;46.80;93838.69;5036318;28;20074;-75
2022/11/04 04:14:50;;;;;;;12.35;8.20;;;;;;;11.69;46.60;93878.59;5036230;28;20112;-75
2022/11/04 04:17:22;;;;;;;14.60;8.20;;;;;;;11.66;46.78;93865.91;5037563;28;20579;-75
2022/11/04 04:19:55;;;;;;;17.05;8.57;;;;;;;11.59;46.87;93870.94;5036370;28;20146;-76
2022/11/04 04:22:30;;;;;;;17.88;9.27;;;;;;;11.64;47.20;93872.69;5035609;28;20044;-75
2022/11/04 04:27:44;;;;;;;19.95;9.63;;;;;;;11.51;47.23;93874.41;5036846;28;20063;-75
2022/11/04 04:30:13;;;;;;;17.38;8.52;;;;;;;11.50;47.15;93878.16;5037637;28;20028;-77
2022/11/04 04:32:50;;;;;;;23.63;10.38;;;;;;;11.49;47.23;93877.34;5037765;28;20032;-75
2022/11/04 04:46:28;;;;;;;15.50;9.50;;;;;;;10.92;47.65;93833.44;5036447;28;20036;-76
2022/11/04 04:48:53;;;;;;;17.15;9.82;;;;;;;11.17;48.02;93873.34;5036748;28;20103;-75
2022/11/04 04:51:19;;;;;;;15.57;9.35;;;;;;;11.11;48.27;93863.94;5022496;28;20151;-76
2022/11/04 04:53:44;;;;;;;19.02;9.18;;;;;;;11.20;47.80;93863.19;5036273;28;20460;-76
2022/11/04 04:56:09;;;;;;;15.05;8.80;;;;;;;10.98;47.88;93848.94;5035262;28;20025;-76
2022/11/04 04:58:35;;;;;;;20.90;10.27;;;;;;;11.11;48.00;93855.97;5035019;28;20028;-76
2022/11/04 05:01:02;;;;;;;16.15;10.07;;;;;;;11.09;47.92;93865.38;5036445;28;20024;-75
2022/11/04 05:03:27;;;;;;;18.70;10.30;;;;;;;11.15;48.41;93875.53;5035503;28;20025;-75
2022/11/04 05:05:52;;;;;;;17.55;9.48;;;;;;;11.00;48.66;93876.00;5018017;28;20040;-76
2022/11/04 05:08:18;;;;;;;16.38;10.43;;;;;;;10.85;48.66;93844.56;5035852;28;20025;-76
2022/11/04 05:10:43;;;;;;;34.50;11.15;;;;;;;10.92;48.64;93852.84;5035922;28;20069;-76
2022/11/04 05:13:28;;;;;;;20.48;10.60;;;;;;;11.14;48.43;93884.63;5034208;28;20029;-76
2022/11/04 05:15:53;;;;;;;22.45;11.60;;;;;;;10.90;48.46;93849.72;5032594;28;20033;-75
2022/11/04 05:18:19;;;;;;;23.23;11.48;;;;;;;11.12;48.56;93888.69;5035387;28;20048;-75
2022/11/04 05:20:44;;;;;;;18.95;10.88;;;;;;;11.10;48.54;93880.25;5035902;28;20048;-75
2022/11/04 05:23:11;;;;;;;15.73;10.55;;;;;;;10.99;48.61;93858.50;5035880;28;20457;-75
2022/11/04 05:25:40;;;;;;;19.73;12.48;;;;;;;11.09;48.91;93884.78;5037110;28;20476;-74
2022/11/04 05:28:07;;;;;;;19.83;11.45;;;;;;;11.15;49.00;93883.50;5033648;28;20407;-75
2022/11/04 05:30:34;;;;;;;19.40;12.30;;;;;;;11.16;48.83;93887.75;5034949;28;20028;-75
2022/11/04 05:33:00;;;;;;;16.27;10.52;;;;;;;11.00;48.71;93868.00;5034295;28;20365;-75
2022/11/04 05:35:25;;;;;;;24.55;12.20;;;;;;;10.82;48.67;93842.50;5036596;28;20162;-76
2022/11/04 05:37:50;;;;;;;21.65;13.20;;;;;;;11.14;49.13;93891.84;5034171;28;20052;-74
2022/11/04 05:40:16;;;;;;;20.50;11.60;;;;;;;11.15;49.24;93894.16;5034554;28;20025;-75
2022/11/04 05:42:41;;;;;;;19.95;12.15;;;;;;;11.05;49.06;93886.50;5033502;28;20063;-75
2022/11/04 05:45:08;;;;;;;15.80;11.77;;;;;;;11.20;49.09;93900.44;5034992;28;21293;-75
2022/11/04 05:47:33;;;;;;;22.60;12.93;;;;;;;11.33;49.10;93915.47;5033665;28;20103;-75
2022/11/04 05:49:58;;;;;;;24.23;12.13;;;;;;;11.37;48.74;93916.41;5034933;28;20041;-76
2022/11/04 05:52:24;;;;;;;23.60;11.48;;;;;;;11.38;48.71;93902.00;5035620;28;20060;-75
2022/11/04 05:54:49;;;;;;;23.55;12.85;;;;;;;11.29;48.93;93891.34;5035181;28;20491;-74
2022/11/04 05:57:15;;;;;;;20.85;13.25;;;;;;;11.26;49.21;93875.22;5036244;28;20039;-75
2022/11/04 05:59:40;;;;;;;20.58;12.10;;;;;;;11.48;49.07;93896.34;5033939;28;20031;-74
2022/11/04 06:02:06;;;;;;;21.90;12.82;;;;;;;11.55;48.87;93901.97;5034403;28;20048;-75
2022/11/04 06:04:32;;;;;;;23.90;13.27;;;;;;;11.74;48.84;93915.72;5016163;28;20021;-74
2022/11/04 06:06:57;;;;;;;28.67;15.05;;;;;;;11.75;49.05;93919.97;5034395;28;20036;-75
2022/11/04 06:09:37;;;;;;;22.23;12.68;;;;;;;11.62;48.84;93883.66;5020223;28;20046;-75
2022/11/04 06:12:04;;;;;;;21.52;13.60;;;;;;;11.69;48.74;93883.91;5034071;28;20507;-75
2022/11/04 06:14:29;;;;;;;20.27;12.18;;;;;;;11.89;48.76;93909.88;5034032;28;20377;-75
2022/11/04 06:16:55;;;;;;;23.38;13.45;;;;;;;11.84;48.62;93894.06;5034571;28;20529;-75
2022/11/04 06:19:20;;;;;;;19.77;12.63;;;;;;;11.96;48.26;93904.88;5024382;28;20405;-74
2022/11/04 06:21:45;;;;;;;28.08;13.90;;;;;;;12.07;48.47;93910.63;5034660;28;20354;-75
2022/11/04 06:24:11;;;;;;;32.78;16.40;;;;;;;12.00;48.75;93897.78;5033405;28;20025;-75
2022/11/04 06:26:38;;;;;;;29.15;15.77;;;;;;;12.17;48.87;93917.50;5031879;28;20025;-75
2022/11/04 06:29:03;;;;;;;25.55;14.90;;;;;;;12.04;48.71;93888.03;5033777;28;20480;-75
2022/11/04 06:31:29;;;;;;;27.65;14.45;;;;;;;12.23;48.67;93905.53;5033571;28;20036;-75
2022/11/04 06:33:54;;;;;;;23.50;14.27;;;;;;;12.10;48.65;93890.53;5032149;28;20055;-75
2022/11/04 06:36:20;;;;;;;33.22;15.25;;;;;;;12.23;48.69;93908.19;5029472;28;20031;-75
2022/11/04 06:38:45;;;;;;;28.40;14.95;;;;;;;12.12;48.69;93888.34;5030073;28;20503;-75
2022/11/04 06:41:14;;;;;;;23.48;14.57;;;;;;;12.06;48.80;93882.41;5033307;28;20036;-77
2022/11/04 06:43:39;;;;;;;27.20;14.80;;;;;;;12.43;48.78;93931.47;5035077;28;20028;-75
2022/11/04 06:46:05;;;;;;;25.92;14.50;;;;;;;12.50;48.58;93925.66;5018279;28;20028;-75
2022/11/04 06:48:31;;;;;;;29.50;15.90;;;;;;;12.41;48.38;93907.03;5034244;28;20442;-75
2022/11/04 06:50:57;;;;;;;24.35;15.45;;;;;;;12.39;48.17;93894.00;5032341;28;20037;-75
2022/11/04 06:53:23;;;;;;;30.85;16.77;;;;;;;12.58;48.04;93927.47;5035990;28;20043;-76
2022/11/04 06:55:50;;;;;;;28.10;15.77;;;;;;;12.61;48.57;93927.66;5036450;28;20631;-75
2022/11/04 06:58:15;;;;;;;20.27;14.38;;;;;;;12.58;48.29;93904.28;5035097;28;20032;-75
2022/11/04 07:00:41;;;;;;;27.75;14.10;;;;;;;12.80;48.06;93920.03;5038012;28;20025;-75
2022/11/04 07:03:08;;;;;;;24.38;15.30;;;;;;;12.56;48.27;93890.47;5036942;28;20119;-75
2022/11/04 07:05:33;;;;;;;32.20;16.50;;;;;;;12.67;48.23;93899.69;5036523;28;20079;-75
2022/11/04 07:07:59;;;;;;;29.58;16.85;;;;;;;12.83;48.33;93916.69;5036707;28;20024;-75
2022/11/04 07:10:24;;;;;;;27.90;16.40;;;;;;;12.70;48.36;93885.69;5037760;28;20029;-76
2022/11/04 07:12:49;;;;;;;26.95;17.00;;;;;;;12.65;48.03;93856.53;5033838;28;20159;-76
2022/11/04 07:15:15;;;;;;;27.90;16.77;;;;;;;13.08;47.62;93906.94;5037346;28;20036;-75
2022/11/04 07:17:40;;;;;;;27.13;17.17;;;;;;;12.75;48.45;93879.41;5035864;28;20485;-76
2022/11/04 07:20:06;;;;;;;27.95;15.55;;;;;;;12.85;47.72;93876.34;5036325;28;20154;-75
2022/11/04 07:22:31;;;;;;;32.28;17.85;;;;;;;12.65;47.74;93837.88;5036940;28;20147;-75
2022/11/04 07:24:57;;;;;;;24.23;17.15;;;;;;;12.81;47.54;93846.06;5035459;28;20047;-75
2022/11/04 07:27:22;;;;;;;32.95;17.20;;;;;;;13.21;47.66;93891.75;5037853;28;20049;-76
2022/11/04 07:29:48;;;;;;;34.50;18.73;;;;;;;13.24;47.51;93901.78;5036390;28;20021;-75
2022/11/04 07:32:13;;;;;;;28.83;16.42;;;;;;;13.07;47.31;93859.97;5038324;28;20090;-77
2022/11/04 07:34:39;;;;;;;30.38;17.80;;;;;;;13.30;47.57;93887.09;5038062;28;21190;-77
2022/11/04 07:37:04;;;;;;;28.13;15.52;;;;;;;12.72;48.53;93835.44;5037499;28;20619;-76
2022/11/04 07:39:29;;;;;;;28.70;16.45;;;;;;;13.05;48.65;93869.44;5036138;28;20029;-75
2022/11/04 07:41:55;;;;;;;32.28;17.35;;;;;;;13.20;48.63;93864.25;5037293;28;20032;-76
2022/11/04 07:44:22;;;;;;;32.05;17.73;;;;;;;13.12;48.82;93878.47;5036747;28;20037;-76
2022/11/04 07:46:47;;;;;;;28.80;17.20;;;;;;;13.36;48.43;93887.69;5036632;28;20036;-75
2022/11/04 07:49:13;;;;;;;30.00;17.05;;;;;;;12.96;49.16;93885.50;5036339;28;20025;-76
2022/11/04 07:51:38;;;;;;;30.13;17.48;;;;;;;13.07;49.02;93885.91;5036824;28;20043;-77
2022/11/04 07:54:03;;;;;;;29.08;16.73;;;;;;;13.04;49.50;93878.56;5037452;28;20166;-76
2022/11/04 07:56:29;;;;;;;41.80;18.20;;;;;;;12.85;49.51;93847.75;5036657;28;20021;-75
2022/11/04 07:58:54;;;;;;;29.17;17.50;;;;;;;12.81;49.70;93854.84;5036309;28;20481;-75
2022/11/04 08:01:24;;;;;;;33.78;18.75;;;;;;;12.41;50.58;93856.34;5035821;28;20147;-75
2022/11/04 08:03:50;;;;;;;31.98;17.73;;;;;;;12.98;49.75;93880.63;5037974;28;20027;-75
2022/11/04 08:06:19;;;;;;;29.73;17.92;;;;;;;13.09;49.70;93873.00;5034208;28;20393;-77
2022/11/04 08:08:44;;;;;;;30.10;17.30;;;;;;;13.00;49.71;93874.97;5036231;28;20041;-75
2022/11/04 08:11:15;;;;;;;35.17;19.33;;;;;;;13.25;48.81;93869.41;5037653;28;20086;-77
2022/11/04 08:13:41;;;;;;;31.52;17.60;;;;;;;13.21;48.66;93831.09;5033799;28;20029;-75
2022/11/04 08:16:12;;;;;;;37.13;18.30;;;;;;;13.42;48.68;93857.78;5035966;28;20087;-75
2022/11/04 08:18:38;;;;;;;29.50;19.00;;;;;;;13.56;48.62;93855.59;5035812;28;20055;-76
2022/11/04 08:21:05;;;;;;;33.10;18.20;;;;;;;13.23;48.17;93804.09;5037188;28;20035;-77
2022/11/04 08:23:31;;;;;;;31.98;18.52;;;;;;;13.67;48.30;93839.97;5035863;28;20028;-76
2022/11/04 08:25:57;;;;;;;33.05;18.75;;;;;;;13.43;48.32;93826.50;5037594;28;20039;-76
2022/11/04 08:28:23;;;;;;;28.08;18.63;;;;;;;13.22;48.67;93822.00;5035973;28;20032;-75
2022/11/04 08:31:00;;;;;;;32.00;18.35;;;;;;;13.04;50.14;93846.50;5037206;28;20033;-76
2022/11/04 08:33:27;;;;;;;40.72;19.48;;;;;;;13.15;49.36;93812.97;5037430;28;20037;-75
2022/11/04 08:35:55;;;;;;;43.75;19.25;;;;;;;13.07;49.55;93814.59;5036672;28;20032;-76
2022/11/04 08:38:20;;;;;;;34.03;19.35;;;;;;;13.06;49.42;93804.22;5037650;28;20048;-76
2022/11/04 08:40:46;;;;;;;32.15;19.33;;;;;;;13.11;49.54;93812.81;5036412;28;20112;-76
2022/11/04 08:43:12;;;;;;;48.78;19.02;;;;;;;13.23;49.32;93814.75;5037083;28;20075;-75
2022/11/04 08:45:43;;;;;;;33.58;18.75;;;;;;;13.39;49.08;93812.25;5036743;28;20096;-76
2022/11/04 08:48:09;;;;;;;33.88;18.65;;;;;;;13.25;49.01;93793.88;5035500;28;20512;-76
2022/11/04 08:50:35;;;;;;;35.55;19.50;;;;;;;13.19;49.51;93808.53;5017007;28;20021;-75
2022/11/04 08:53:01;;;;;;;34.92;19.27;;;;;;;13.51;49.07;93809.59;5035463;28;20071;-75
2022/11/04 08:55:31;;;;;;;31.95;19.92;;;;;;;13.54;48.96;93809.75;5035050;28;20028;-75
2022/11/04 08:57:58;;;;;;;45.45;19.65;;;;;;;13.50;48.95;93806.16;5036191;28;20063;-76
2022/11/04 09:00:23;;;;;;;35.75;18.58;;;;;;;13.36;49.50;93815.56;5034253;28;20375;-75
2022/11/04 09:02:49;;;;;;;31.10;19.35;;;;;;;13.23;49.34;93769.38;5034380;28;20016;-76
2022/11/04 09:05:14;;;;;;;32.50;18.27;;;;;;;13.30;49.55;93804.31;5033420;28;20025;-76
2022/11/04 09:07:40;;;;;;;36.45;18.65;;;;;;;13.25;50.11;93799.19;5031544;28;20029;-75
2022/11/04 09:10:08;;;;;;;34.97;18.50;;;;;;;13.10;50.35;93805.16;5035873;28;20033;-76
2022/11/04 09:12:33;;;;;;;37.17;18.90;;;;;;;13.08;50.28;93786.78;5035427;28;20041;-76
2022/11/04 09:14:59;;;;;;;34.53;18.67;;;;;;;13.20;50.34;93783.38;5034983;28;20322;-75
2022/11/04 09:17:24;;;;;;;39.65;19.40;;;;;;;13.59;49.48;93795.41;5035707;28;20128;-75
2022/11/04 09:19:50;;;;;;;36.15;18.63;;;;;;;13.57;48.93;93792.25;5008404;28;20120;-75
2022/11/04 09:22:15;;;;;;;33.35;18.27;;;;;;;13.74;48.75;93790.19;5030311;28;20044;-75
2022/11/04 09:24:41;;;;;;;31.52;18.13;;;;;;;13.73;48.45;93785.97;5030273;28;20032;-76
2022/11/04 09:27:06;;;;;;;36.75;18.55;;;;;;;13.59;49.17;93790.81;5034162;28;20116;-75
2022/11/04 09:29:35;;;;;;;36.13;17.77;;;;;;;13.59;49.08;93772.13;5035544;28;20032;-76
2022/11/04 09:32:01;;;;;;;32.28;18.58;;;;;;;13.69;48.67;93785.06;5034361;28;20043;-76
2022/11/04 09:34:27;;;;;;;36.03;17.25;;;;;;;13.80;48.46;93776.59;5030942;28;20152;-76
2022/11/04 09:36:56;;;;;;;32.65;18.25;;;;;;;13.74;48.26;93743.97;5032667;28;20029;-76
2022/11/04 09:39:23;;;;;;;38.72;17.92;;;;;;;13.80;48.06;93765.91;5033038;28;20459;-76
2022/11/04 09:41:54;;;;;;;29.98;17.90;;;;;;;13.89;47.93;93771.91;5035710;28;20043;-75
2022/11/04 09:44:48;;;;;;;33.60;17.52;;;;;;;14.19;47.38;93763.31;5033111;28;20178;-75
2022/11/04 09:47:16;;;;;;;35.97;17.48;;;;;;;14.10;47.08;93738.59;5034639;28;20036;-77
2022/11/04 09:49:46;;;;;;;29.35;16.65;;;;;;;14.28;47.05;93752.50;5031890;28;20551;-75
2022/11/04 09:52:24;;;;;;;32.28;15.88;;;;;;;14.38;46.44;93716.47;5032786;28;20017;-75
2022/11/04 09:54:58;;;;;;;27.67;16.35;;;;;;;14.73;46.70;93748.84;5029793;28;20229;-76
2022/11/04 09:57:24;;;;;;;35.20;16.65;;;;;;;14.28;46.65;93707.03;5033267;28;20032;-76
2022/11/04 09:59:50;;;;;;;34.38;16.88;;;;;;;14.65;46.46;93734.50;5032122;28;20812;-77
2022/11/04 10:02:19;;;;;;;29.92;16.70;;;;;;;14.82;46.09;93738.78;5034497;28;20029;-77
2022/11/04 10:05:19;;;;;;;31.58;15.82;;;;;;;14.78;45.74;93727.97;5034921;28;20029;-75
2022/11/04 10:08:02;;;;;;;29.20;15.00;;;;;;;14.85;45.83;93722.81;5009434;28;20045;-76
2022/11/04 10:10:28;;;;;;;28.05;15.23;;;;;;;14.84;45.66;93720.47;5029910;28;20037;-75
2022/11/04 10:13:25;;;;;;;24.20;15.70;;;;;;;15.09;45.32;93710.44;5035223;28;20036;-76
2022/11/04 10:16:09;;;;;;;27.13;15.20;;;;;;;15.32;44.79;93708.72;4964125;28;20384;-75
2022/11/04 10:19:07;;;;;;;25.67;13.63;;;;;;;15.57;44.64;93709.38;5032275;28;20163;-76
2022/11/04 10:21:48;;;;;;;23.83;14.55;;;;;;;15.40;44.12;93700.50;4998349;28;20055;-77
2022/11/04 10:24:37;;;;;;;33.58;15.90;;;;;;;15.62;43.95;93701.84;5034498;28;20564;-76
2022/11/04 10:27:08;;;;;;;28.48;15.27;;;;;;;15.55;43.57;93693.63;5039490;28;20033;-77
2022/11/04 10:29:43;;;;;;;34.83;18.25;;;;;;;15.61;43.78;93684.19;5036597;28;20480;-76
2022/11/04 10:32:27;;;;;;;;;;;;;;;15.55;43.30;93685.56;5038699;28;20029;-77
2022/11/04 10:35:20;;;;;;;30.42;16.80;;;;;;;15.62;43.28;93660.84;5037697;28;19917;-77
2022/11/04 10:37:50;;;;;;;25.73;14.75;;;;;;;15.64;42.64;93637.16;5037403;28;20048;-76
2022/11/04 10:40:31;;;;;;;25.05;15.13;;;;;;;16.04;42.56;93666.38;5039230;28;20049;-77
2022/11/04 10:43:00;;;;;;;27.77;14.02;;;;;;;15.99;42.52;93627.19;5036647;28;20033;-76
2022/11/04 10:45:33;;;;;;;25.08;14.77;;;;;;;16.19;42.16;93633.38;5040036;28;20076;-76
2022/11/04 10:48:10;;;;;;;21.83;13.70;;;;;;;16.33;42.37;93639.81;5036606;28;20064;-77
2022/11/04 10:50:44;;;;;;;24.95;14.95;;;;;;;16.51;41.83;93639.41;5037705;28;20163;-78
2022/11/04 10:53:19;;;;;;;26.77;14.82;;;;;;;16.59;41.59;93620.41;5029784;28;20041;-77
2022/11/04 10:56:05;;;;;;;28.38;15.18;;;;;;;16.59;41.34;93598.16;5025072;28;20168;-76
2022/11/04 10:58:35;;;;;;;24.42;15.50;;;;;;;16.74;41.01;93598.06;5034288;28;20033;-76
2022/11/04 11:01:31;;;;;;;22.70;14.70;;;;;;;16.90;41.59;93611.38;5030018;28;20021;-76
2022/11/04 11:03:58;;;;;;;25.92;14.02;;;;;;;16.88;40.81;93604.81;5026683;28;20137;-76
2022/11/04 11:06:28;;;;;;;29.83;15.13;;;;;;;16.94;41.27;93600.69;5005938;28;20024;-76
2022/11/04 11:08:57;;;;;;;19.92;12.98;;;;;;;17.06;40.65;93600.53;5033579;28;20416;-77
2022/11/04 11:12:01;;;;;;;24.50;13.98;;;;;;;17.00;40.39;93597.38;5020020;28;20017;-76
2022/11/04 11:14:26;;;;;;;22.98;13.88;;;;;;;16.93;40.58;93586.47;5002568;28;20773;-77
2022/11/04 11:16:52;;;;;;;24.58;14.95;;;;;;;17.02;41.68;93583.56;5030572;28;20064;-77
2022/11/04 11:19:20;;;;;;;23.45;14.60;;;;;;;17.09;40.87;93584.47;5030902;28;20368;-77
2022/11/04 11:21:50;;;;;;;23.67;14.07;;;;;;;17.06;40.75;93571.72;5034334;28;20021;-77
2022/11/04 11:24:20;;;;;;;24.02;13.98;;;;;;;17.01;40.73;93574.72;5034353;28;20036;-75
2022/11/04 11:26:48;;;;;;;27.15;14.30;;;;;;;17.15;40.67;93568.84;5032296;28;20034;-77
2022/11/04 11:29:20;;;;;;;24.73;13.48;;;;;;;16.94;40.70;93553.13;5036169;28;20044;-76
2022/11/04 11:31:46;;;;;;;27.00;13.27;;;;;;;16.89;41.24;93534.63;5030183;28;20040;-77
2022/11/04 11:34:25;;;;;;;32.85;14.00;;;;;;;17.02;41.79;93519.84;5028842;28;20033;-77
2022/11/04 11:36:54;;;;;;;21.73;14.13;;;;;;;17.27;42.04;93538.28;5035875;28;20032;-76
2022/11/04 11:39:24;;;;;;;30.67;13.95;;;;;;;17.25;40.52;93532.53;5034059;28;20132;-76
2022/11/04 11:41:58;;;;;;;32.20;14.27;;;;;;;17.03;40.35;93515.25;5033847;28;20492;-77
2022/11/04 11:44:43;;;;;;;23.52;12.95;;;;;;;16.99;40.56;93523.28;5015366;28;20144;-76
2022/11/04 11:47:41;;;;;;;22.20;13.75;;;;;;;17.26;40.34;93526.03;5033590;28;20059;-76
2022/11/04 11:50:12;;;;;;;25.35;11.88;;;;;;;17.38;39.88;93515.03;5029270;28;20041;-77
2022/11/04 11:52:39;;;;;;;25.05;11.88;;;;;;;17.15;39.82;93499.75;5031781;28;20057;-76
2022/11/04 11:55:14;;;;;;;24.38;12.48;;;;;;;17.10;40.07;93510.78;5030979;28;20033;-76
2022/11/04 11:57:45;;;;;;;23.25;11.55;;;;;;;17.07;40.65;93473.88;5030317;28;20029;-76
2022/11/04 12:00:17;;;;;;;24.77;13.10;;;;;;;17.16;40.83;93482.47;5016391;28;20528;-76
2022/11/04 12:03:01;;;;;;;17.15;11.82;;;;;;;17.30;40.23;93505.34;5012704;28;20083;-77
2022/11/04 12:05:35;;;;;;;26.20;12.15;;;;;;;17.29;40.34;93506.47;5033848;28;20429;-76
2022/11/04 12:08:05;;;;;;;25.33;13.38;;;;;;;17.40;39.86;93507.41;5035027;28;20071;-76
2022/11/04 12:10:42;;;;;;;23.17;11.82;;;;;;;17.45;39.27;93504.41;5034640;28;20025;-77